Time;durP1;ratioP1;P1;durP2;ratioP2;P2;SDS_P1;SDS_P2;PMS_P1;PMS_P2;Temp;Humidity;BMP_temperature;BMP_pressure;BME280_temperature;BME280_humidity;BME280_pressure;Samples;Min_cycle;Max_cycle;Signal;HPM_P1;HPM_P2
2024/01/04 00:00:35;;;;;;;0.40;0.40;;;;;;;1.86;100.00;96130.13;5002589;28;20054;-64
2024/01/04 00:03:03;;;;;;;0.40;0.40;;;;;;;2.15;100.00;96165.47;4987712;28;20058;-64
2024/01/04 00:05:29;;;;;;;0.40;0.40;;;;;;;3.20;100.00;96354.97;4987935;28;20066;-64
2024/01/04 00:07:56;;;;;;;0.40;0.40;;;;;;;3.11;100.00;96329.66;5017778;28;20108;-65
2024/01/04 00:10:23;;;;;;;0.40;0.40;;;;;;;3.04;100.00;96329.41;5013948;28;20053;-64
2024/01/04 00:12:51;;;;;;;0.40;0.40;;;;;;;3.07;100.00;96334.22;5019931;28;20112;-64
2024/01/04 00:15:18;;;;;;;0.40;0.40;;;;;;;3.07;100.00;96328.75;5007234;28;20092;-65
2024/01/04 00:17:45;;;;;;;0.40;0.40;;;;;;;3.09;100.00;96337.41;5005578;28;20061;-66
2024/01/04 00:20:13;;;;;;;0.40;0.40;;;;;;;2.94;100.00;96335.34;5006917;28;20200;-63
2024/01/04 00:22:39;;;;;;;0.30;0.30;;;;;;;2.51;100.00;96263.91;5007018;28;20042;-62
2024/01/04 00:25:08;;;;;;;0.40;0.40;;;;;;;2.83;100.00;96334.97;5006857;28;20350;-62
2024/01/04 00:27:35;;;;;;;0.40;0.40;;;;;;;0.63;100.00;95976.47;5007141;28;20060;-64
2024/01/04 00:30:02;;;;;;;0.40;0.40;;;;;;;2.13;100.00;96247.75;5006628;28;20050;-67
2024/01/04 00:32:30;;;;;;;0.40;0.40;;;;;;;2.68;100.00;96334.81;5006875;28;20137;-64
2024/01/04 00:34:57;;;;;;;0.40;0.40;;;;;;;2.74;100.00;96331.53;5006774;28;20058;-64
2024/01/04 00:37:23;;;;;;;0.40;0.40;;;;;;;2.76;100.00;96329.25;5006465;28;20508;-65
2024/01/04 00:39:50;;;;;;;0.40;0.40;;;;;;;2.87;100.00;96330.44;5007100;28;20056;-64
2024/01/04 00:42:17;;;;;;;0.30;0.30;;;;;;;2.89;100.00;96330.09;5021863;28;20061;-64
2024/01/04 00:44:44;;;;;;;0.40;0.40;;;;;;;1.90;100.00;96264.84;5021804;28;20425;-64
2024/01/04 00:47:10;;;;;;;0.30;0.30;;;;;;;2.21;100.00;96323.38;5021436;28;20046;-63
2024/01/04 00:49:37;;;;;;;0.40;0.40;;;;;;;2.05;100.00;96264.22;5006731;28;20053;-63
2024/01/04 00:52:04;;;;;;;0.40;0.40;;;;;;;2.42;100.00;96323.34;5004779;28;20053;-66
2024/01/04 00:54:31;;;;;;;0.40;0.40;;;;;;;2.05;100.00;96253.28;5006714;28;20133;-63
2024/01/04 00:57:00;;;;;;;0.30;0.30;;;;;;;1.78;100.00;96199.25;5006400;28;20061;-64
2024/01/04 00:59:27;;;;;;;0.40;0.40;;;;;;;2.56;100.00;96330.09;5006232;28;20076;-65
2024/01/04 01:01:54;;;;;;;0.30;0.30;;;;;;;2.60;100.00;96333.75;5006335;28;20046;-63
2024/01/04 01:04:21;;;;;;;0.40;0.40;;;;;;;2.69;100.00;96328.19;5003686;28;20074;-63
2024/01/04 01:06:48;;;;;;;0.30;0.30;;;;;;;2.28;100.00;96268.97;5005721;28;20062;-65
2024/01/04 01:09:15;;;;;;;0.30;0.30;;;;;;;2.66;100.00;96339.81;5006429;28;20104;-66
2024/01/04 01:11:42;;;;;;;0.30;0.30;;;;;;;2.13;100.00;96246.94;5021073;28;20053;-65
2024/01/04 01:14:09;;;;;;;0.40;0.40;;;;;;;2.67;100.00;96335.94;5005800;28;20499;-63
2024/01/04 01:16:36;;;;;;;0.40;0.40;;;;;;;2.67;100.00;96352.34;5004694;28;20058;-63
2024/01/04 01:19:03;;;;;;;0.30;0.30;;;;;;;2.46;100.00;96319.59;5006185;28;20053;-64
2024/01/04 01:21:30;;;;;;;0.40;0.40;;;;;;;1.80;100.00;96229.75;5006175;28;20133;-65
2024/01/04 01:23:57;;;;;;;0.30;0.30;;;;;;;2.67;100.00;96357.81;5006277;28;20057;-64
2024/01/04 01:26:24;;;;;;;0.40;0.40;;;;;;;2.14;100.00;96284.03;5006350;28;20074;-63
2024/01/04 01:28:51;;;;;;;0.30;0.30;;;;;;;2.60;100.00;96357.56;5006134;28;20053;-66
2024/01/04 01:31:17;;;;;;;0.30;0.30;;;;;;;1.91;100.00;96230.94;5020585;28;20077;-62
2024/01/04 01:33:45;;;;;;;0.35;0.35;;;;;;;2.54;100.00;96331.56;5005651;28;20129;-63
2024/01/04 01:36:12;;;;;;;0.30;0.30;;;;;;;2.52;100.00;96317.44;5020598;28;20041;-63
2024/01/04 01:38:39;;;;;;;0.40;0.40;;;;;;;2.76;100.00;96325.72;5005751;28;20662;-65
2024/01/04 01:41:06;;;;;;;0.38;0.38;;;;;;;2.38;100.00;96268.56;5005526;28;20144;-64
2024/01/04 01:43:33;;;;;;;0.40;0.40;;;;;;;1.74;100.00;96179.22;5006122;28;20054;-63
2024/01/04 01:46:00;;;;;;;0.40;0.40;;;;;;;2.71;100.00;96325.94;5005429;28;20065;-63
2024/01/04 01:48:27;;;;;;;0.35;0.35;;;;;;;2.21;100.00;96251.53;5020475;28;20053;-63
2024/01/04 01:50:54;;;;;;;0.40;0.40;;;;;;;2.82;100.00;96327.09;5005013;28;20644;-63
2024/01/04 01:53:22;;;;;;;0.40;0.40;;;;;;;2.68;100.00;96337.53;5020475;28;20054;-63
2024/01/04 01:55:49;;;;;;;0.40;0.40;;;;;;;2.43;100.00;96346.78;4990893;28;20077;-64
2024/01/04 01:58:16;;;;;;;0.30;0.30;;;;;;;2.21;100.00;96284.31;4985377;28;20564;-63
2024/01/04 02:00:43;;;;;;;0.30;0.30;;;;;;;2.03;100.00;96250.09;4985552;28;20057;-64
2024/01/04 02:03:11;;;;;;;0.40;0.40;;;;;;;2.54;100.00;96326.91;4985421;28;20055;-65
2024/01/04 02:05:38;;;;;;;0.40;0.40;;;;;;;2.51;100.00;96313.13;4985461;28;20469;-65
2024/01/04 02:08:05;;;;;;;0.30;0.30;;;;;;;1.90;100.00;96188.38;4997060;28;20513;-63
2024/01/04 02:10:32;;;;;;;0.30;0.30;;;;;;;2.63;100.00;96318.59;5004780;28;20054;-63
2024/01/04 02:12:59;;;;;;;0.40;0.40;;;;;;;2.67;100.00;96303.91;5005047;28;20049;-62
2024/01/04 02:15:26;;;;;;;0.30;0.30;;;;;;;2.09;100.00;96248.72;5020018;28;20812;-63
2024/01/04 02:17:53;;;;;;;0.40;0.40;;;;;;;2.66;100.00;96302.34;5005201;28;20057;-63
2024/01/04 02:20:20;;;;;;;0.40;0.40;;;;;;;2.62;100.00;96284.22;5005281;28;20061;-64
2024/01/04 02:22:48;;;;;;;0.40;0.40;;;;;;;2.34;100.00;96229.38;5003440;28;20424;-64
2024/01/04 02:25:15;;;;;;;0.30;0.30;;;;;;;1.96;100.00;96146.09;5004763;28;20136;-63
2024/01/04 02:27:42;;;;;;;0.40;0.40;;;;;;;2.94;100.00;96308.00;5004649;28;20112;-64
2024/01/04 02:30:11;;;;;;;0.30;0.30;;;;;;;2.90;100.00;96318.00;5019668;28;20045;-65
2024/01/04 02:32:38;;;;;;;0.30;0.30;;;;;;;2.85;100.00;96315.47;5004680;28;20057;-64
2024/01/04 02:35:06;;;;;;;0.40;0.40;;;;;;;2.47;100.00;96271.19;5004383;28;20088;-63
2024/01/04 02:37:32;;;;;;;0.40;0.40;;;;;;;2.33;100.00;96232.44;5019795;28;20508;-63
2024/01/04 02:39:59;;;;;;;0.40;0.40;;;;;;;2.86;100.00;96317.09;5019600;28;20390;-64
2024/01/04 02:42:26;;;;;;;0.40;0.40;;;;;;;2.92;100.00;96321.19;5004736;28;20432;-66
2024/01/04 02:44:53;;;;;;;0.35;0.35;;;;;;;2.62;100.00;96284.22;5004740;28;20144;-64
2024/01/04 02:47:20;;;;;;;0.40;0.40;;;;;;;2.76;100.00;96402.28;5004853;28;20496;-64
2024/01/04 02:49:46;;;;;;;0.40;0.40;;;;;;;1.39;100.00;96138.56;5004601;28;20050;-65
2024/01/04 02:52:13;;;;;;;0.30;0.30;;;;;;;2.56;100.00;96296.50;5004529;28;20050;-66
2024/01/04 02:54:40;;;;;;;0.40;0.40;;;;;;;2.70;100.00;96319.66;5004757;28;20049;-64
2024/01/04 02:57:07;;;;;;;0.32;0.32;;;;;;;2.03;100.00;96217.31;5004198;28;20049;-66
2024/01/04 02:59:34;;;;;;;0.32;0.32;;;;;;;2.28;100.00;96235.38;5019535;28;20057;-64
2024/01/04 03:02:00;;;;;;;0.35;0.35;;;;;;;2.55;100.00;96311.28;5004609;28;20138;-64
2024/01/04 03:04:27;;;;;;;0.40;0.40;;;;;;;2.71;100.00;96331.41;5003959;28;20057;-63
2024/01/04 03:06:54;;;;;;;0.30;0.30;;;;;;;2.64;100.00;96340.13;5004026;28;20500;-64
2024/01/04 03:09:21;;;;;;;0.30;0.30;;;;;;;2.72;100.00;96332.97;5004398;28;20060;-64
2024/01/04 03:11:48;;;;;;;0.30;0.30;;;;;;;2.45;100.00;96322.66;5018590;28;20085;-63
2024/01/04 03:14:14;;;;;;;0.40;0.40;;;;;;;2.48;100.00;96332.91;5019042;28;20045;-64
2024/01/04 03:16:42;;;;;;;0.40;0.40;;;;;;;1.83;100.00;96201.75;5018665;28;20054;-64
2024/01/04 03:19:08;;;;;;;0.40;0.40;;;;;;;-0.63;100.00;95808.28;5003979;28;20038;-63
2024/01/04 03:21:35;;;;;;;0.40;0.40;;;;;;;2.66;100.00;96332.41;5004274;28;20088;-63
2024/01/04 03:24:02;;;;;;;0.32;0.32;;;;;;;2.66;100.00;96335.16;5003752;28;20340;-63
2024/01/04 03:26:29;;;;;;;0.30;0.30;;;;;;;2.66;100.00;96334.34;5003808;28;20054;-64
2024/01/04 03:28:56;;;;;;;0.40;0.40;;;;;;;2.47;100.00;96301.25;5006733;28;20061;-64
2024/01/04 03:31:22;;;;;;;0.35;0.35;;;;;;;2.52;100.00;96322.91;5007976;28;20418;-64
2024/01/04 03:33:49;;;;;;;0.40;0.40;;;;;;;2.11;100.00;96257.41;5008493;28;20049;-65
2024/01/04 03:36:16;;;;;;;0.40;0.40;;;;;;;2.73;100.00;96340.06;5006455;28;20144;-64
2024/01/04 03:38:45;;;;;;;0.40;0.40;;;;;;;2.78;100.00;96332.44;5007783;28;20104;-65
2024/01/04 03:41:12;;;;;;;0.35;0.35;;;;;;;2.69;100.00;96336.38;5007829;28;20054;-65
2024/01/04 03:43:39;;;;;;;0.40;0.40;;;;;;;2.01;100.00;96246.91;5007817;28;20049;-66
2024/01/04 03:46:08;;;;;;;0.30;0.30;;;;;;;2.56;100.00;96319.16;5006454;28;20100;-65
2024/01/04 03:48:35;;;;;;;0.30;0.30;;;;;;;1.39;100.00;96165.84;5006623;28;20336;-65
2024/01/04 03:51:03;;;;;;;0.40;0.40;;;;;;;2.39;100.00;96324.78;5007721;28;20058;-64
2024/01/04 03:53:30;;;;;;;0.40;0.40;;;;;;;2.31;100.00;96306.53;5006100;28;20521;-63
2024/01/04 03:55:56;;;;;;;0.30;0.30;;;;;;;2.33;100.00;96300.75;5005944;28;20064;-63
2024/01/04 03:58:23;;;;;;;0.30;0.30;;;;;;;2.33;100.00;96271.50;4988013;28;20054;-65
2024/01/04 04:00:53;;;;;;;0.40;0.40;;;;;;;2.11;100.00;96238.28;4988087;28;20050;-66
2024/01/04 04:03:20;;;;;;;0.40;0.40;;;;;;;2.15;100.00;96250.16;5002508;28;20066;-67
2024/01/04 04:05:47;;;;;;;0.30;0.30;;;;;;;1.42;100.00;96255.22;4986266;28;20069;-67
2024/01/04 04:08:14;;;;;;;0.30;0.30;;;;;;;1.51;100.00;96223.22;4997092;28;20050;-66
2024/01/04 04:10:42;;;;;;;0.35;0.35;;;;;;;1.68;100.00;96205.91;5022037;28;20057;-66
2024/01/04 04:13:09;;;;;;;0.30;0.30;;;;;;;1.80;100.00;96251.56;5007472;28;20111;-65
2024/01/04 04:15:36;;;;;;;0.30;0.30;;;;;;;0.68;100.00;96302.44;5007498;28;20062;-63
2024/01/04 04:18:03;;;;;;;0.30;0.30;;;;;;;-2.95;100.00;95752.16;5022790;28;20062;-62
2024/01/04 04:20:30;;;;;;;0.30;0.30;;;;;;;0.72;100.00;96293.28;5007304;28;20116;-61
2024/01/04 04:22:57;;;;;;;0.32;0.32;;;;;;;0.72;100.00;96271.47;5007192;28;20161;-64
2024/01/04 04:25:25;;;;;;;0.30;0.30;;;;;;;1.14;100.00;96305.09;5012488;28;20562;-63
2024/01/04 04:27:52;;;;;;;0.30;0.30;;;;;;;1.31;100.00;96297.63;4986264;28;20220;-61
2024/01/04 04:30:22;;;;;;;0.30;0.30;;;;;;;1.05;100.00;96247.91;4987354;28;20050;-63
2024/01/04 04:32:49;;;;;;;0.30;0.30;;;;;;;1.53;100.00;96308.25;4986086;28;20077;-61
2024/01/04 04:35:16;;;;;;;0.30;0.30;;;;;;;1.19;100.00;96292.09;4986956;28;20136;-63
2024/01/04 04:37:43;;;;;;;0.30;0.30;;;;;;;-0.70;100.00;95925.72;5001954;28;20344;-62
2024/01/04 04:40:11;;;;;;;0.30;0.30;;;;;;;1.85;100.00;96308.72;4985033;28;20133;-62
2024/01/04 04:42:41;;;;;;;0.30;0.30;;;;;;;1.88;100.00;96297.91;4986835;28;20809;-62
2024/01/04 04:45:08;;;;;;;0.30;0.30;;;;;;;1.83;100.00;96297.31;4986517;28;20050;-62
2024/01/04 04:47:35;;;;;;;0.30;0.30;;;;;;;1.55;100.00;96247.91;4986745;28;20047;-62
2024/01/04 04:50:03;;;;;;;0.35;0.35;;;;;;;2.10;100.00;96299.50;4985027;28;20517;-62
2024/01/04 04:52:30;;;;;;;0.30;0.30;;;;;;;1.68;100.00;96243.31;4986795;28;20141;-61
2024/01/04 04:54:57;;;;;;;0.30;0.30;;;;;;;2.14;100.00;96306.69;4986579;28;20054;-65
2024/01/04 04:57:23;;;;;;;0.30;0.30;;;;;;;1.17;100.00;96141.63;4986726;28;20533;-64
2024/01/04 04:59:50;;;;;;;0.32;0.32;;;;;;;2.15;100.00;96302.03;4986308;28;20502;-61
2024/01/04 05:02:18;;;;;;;0.30;0.30;;;;;;;1.93;100.00;96234.91;4986762;28;20153;-62
2024/01/04 05:04:45;;;;;;;0.30;0.30;;;;;;;2.22;100.00;96288.63;4985051;28;20058;-63
2024/01/04 05:07:12;;;;;;;0.40;0.40;;;;;;;2.07;100.00;96278.34;4986833;28;20113;-63
2024/01/04 05:09:39;;;;;;;0.30;0.30;;;;;;;2.26;100.00;96275.91;5020341;28;20057;-64
2024/01/04 05:12:06;;;;;;;0.40;0.40;;;;;;;2.20;100.00;96321.75;5005787;28;20096;-62
2024/01/04 05:14:33;;;;;;;0.30;0.30;;;;;;;1.53;100.00;96171.81;5007357;28;20049;-62
2024/01/04 05:17:01;;;;;;;0.30;0.30;;;;;;;1.38;100.00;96137.00;5007151;28;20107;-63
2024/01/04 05:19:27;;;;;;;0.30;0.30;;;;;;;2.06;100.00;96260.31;5021511;28;20070;-64
2024/01/04 05:21:55;;;;;;;0.30;0.30;;;;;;;2.45;100.00;96300.81;5004753;28;20060;-62
2024/01/04 05:24:21;;;;;;;0.40;0.40;;;;;;;1.95;100.00;96281.00;5005748;28;20078;-64
2024/01/04 05:26:48;;;;;;;0.30;0.30;;;;;;;2.02;100.00;96245.75;5020691;28;20652;-64
2024/01/04 05:29:15;;;;;;;0.40;0.40;;;;;;;1.39;100.00;96154.94;5006009;28;20049;-63
2024/01/04 05:31:42;;;;;;;0.40;0.40;;;;;;;2.46;100.00;96318.78;5005737;28;20504;-63
2024/01/04 05:34:09;;;;;;;0.40;0.40;;;;;;;1.50;100.00;96167.03;5005441;28;20077;-62
2024/01/04 05:36:36;;;;;;;0.40;0.40;;;;;;;2.44;100.00;96326.50;5005523;28;20050;-64
2024/01/04 05:39:03;;;;;;;0.40;0.40;;;;;;;2.46;100.00;96325.06;5005780;28;20510;-63
2024/01/04 05:41:30;;;;;;;0.30;0.30;;;;;;;2.07;100.00;96251.03;5005252;28;20576;-62
2024/01/04 05:43:56;;;;;;;0.40;0.40;;;;;;;2.33;100.00;96334.34;5005310;28;20054;-63
2024/01/04 05:46:23;;;;;;;0.38;0.38;;;;;;;2.55;100.00;96300.34;5005532;28;20574;-63
2024/01/04 05:48:50;;;;;;;0.30;0.30;;;;;;;2.50;100.00;96319.69;5005682;28;20112;-63
2024/01/04 05:51:17;;;;;;;0.40;0.40;;;;;;;2.57;100.00;96309.03;5004008;28;20104;-62
2024/01/04 05:53:44;;;;;;;0.30;0.30;;;;;;;2.14;100.00;96224.75;5004838;28;20132;-63
2024/01/04 05:56:11;;;;;;;0.40;0.40;;;;;;;2.50;100.00;96304.09;5019332;28;20056;-62
2024/01/04 05:58:37;;;;;;;0.30;0.30;;;;;;;2.47;100.00;96314.91;5005249;28;20488;-63
2024/01/04 06:01:05;;;;;;;0.40;0.40;;;;;;;2.50;100.00;96303.28;5003695;28;20058;-64
2024/01/04 06:03:31;;;;;;;0.30;0.30;;;;;;;1.83;100.00;96185.38;5003592;28;20139;-63
2024/01/04 06:05:58;;;;;;;0.30;0.30;;;;;;;2.64;100.00;96307.34;5004154;28;20081;-63
2024/01/04 06:08:25;;;;;;;0.40;0.40;;;;;;;1.73;100.00;96159.31;5018166;28;20587;-61
2024/01/04 06:10:52;;;;;;;0.40;0.40;;;;;;;2.74;100.00;96314.31;5003786;28;20060;-62
2024/01/04 06:13:21;;;;;;;0.40;0.40;;;;;;;2.79;100.00;96316.84;5003688;28;20050;-64
2024/01/04 06:15:47;;;;;;;0.40;0.40;;;;;;;2.49;100.00;96277.13;5004507;28;20046;-63
2024/01/04 06:18:14;;;;;;;0.40;0.40;;;;;;;2.73;100.00;96318.19;5004855;28;20068;-61
2024/01/04 06:20:41;;;;;;;0.30;0.30;;;;;;;2.70;100.00;96281.38;5004466;28;20042;-62
2024/01/04 06:23:08;;;;;;;0.40;0.40;;;;;;;3.01;100.00;96332.84;5004961;28;20086;-64
2024/01/04 06:25:35;;;;;;;0.40;0.40;;;;;;;3.06;100.00;96324.41;5004603;28;20125;-62
2024/01/04 06:28:01;;;;;;;0.40;0.40;;;;;;;3.10;100.00;96317.09;5004544;28;20539;-65
2024/01/04 06:30:28;;;;;;;0.40;0.40;;;;;;;2.96;100.00;96290.09;5003178;28;20049;-64
2024/01/04 06:32:55;;;;;;;0.30;0.30;;;;;;;2.55;100.00;96223.84;5002745;28;20072;-66
2024/01/04 06:35:22;;;;;;;0.40;0.40;;;;;;;3.17;100.00;96322.84;5004339;28;20045;-64
2024/01/04 06:37:49;;;;;;;0.40;0.40;;;;;;;3.44;100.00;96319.44;5004286;28;20063;-64
2024/01/04 06:40:16;;;;;;;0.40;0.40;;;;;;;3.07;100.00;96246.66;5002873;28;20714;-63
2024/01/04 06:42:44;;;;;;;0.40;0.40;;;;;;;3.53;100.00;96298.22;5004536;28;20050;-64
2024/01/04 06:45:11;;;;;;;0.40;0.40;;;;;;;3.45;100.00;96301.84;5004478;28;20064;-66
2024/01/04 06:47:38;;;;;;;0.40;0.40;;;;;;;3.55;100.00;96334.25;5004306;28;20050;-68
2024/01/04 06:50:06;;;;;;;0.40;0.40;;;;;;;3.69;100.00;96334.69;5004253;28;20516;-66
2024/01/04 06:52:44;;;;;;;0.40;0.40;;;;;;;3.78;100.00;96329.91;5017955;28;20096;-66
2024/01/04 06:55:13;;;;;;;0.40;0.40;;;;;;;2.98;100.00;96254.19;5004552;28;20135;-65
2024/01/04 06:57:40;;;;;;;0.40;0.40;;;;;;;2.52;100.00;96240.91;5019060;28;20069;-64
2024/01/04 07:00:08;;;;;;;0.30;0.30;;;;;;;3.43;100.00;96338.94;5003948;28;20053;-65
2024/01/04 07:02:36;;;;;;;0.40;0.40;;;;;;;3.24;100.00;96276.53;5002669;28;20120;-63
2024/01/04 07:05:03;;;;;;;0.40;0.40;;;;;;;3.60;100.00;96309.41;4992940;28;20065;-66
2024/01/04 07:07:31;;;;;;;0.40;0.40;;;;;;;2.93;100.00;96300.91;5001644;28;20046;-65
2024/01/04 07:09:58;;;;;;;0.40;0.40;;;;;;;3.46;100.00;96316.34;5001793;28;20046;-61
2024/01/04 07:12:25;;;;;;;0.30;0.30;;;;;;;2.71;100.00;96178.28;5002024;28;20069;-67
2024/01/04 07:14:53;;;;;;;0.40;0.40;;;;;;;3.08;100.00;96231.88;4987752;28;20101;-70
2024/01/04 07:17:22;;;;;;;0.40;0.40;;;;;;;2.98;100.00;96199.50;5018337;28;20070;-62
2024/01/04 07:19:49;;;;;;;0.40;0.40;;;;;;;3.56;100.00;96263.84;5002356;28;20093;-62
2024/01/04 07:22:16;;;;;;;0.45;0.45;;;;;;;3.89;100.00;96280.94;4984621;28;20089;-65
2024/01/04 07:24:43;;;;;;;0.40;0.40;;;;;;;4.37;100.00;96316.41;5000685;28;20078;-61
2024/01/04 07:27:12;;;;;;;0.40;0.40;;;;;;;4.02;100.00;96236.72;5003445;28;20050;-69
2024/01/04 07:29:39;;;;;;;0.50;0.50;;;;;;;4.10;100.00;96252.22;5018156;28;20136;-65
2024/01/04 07:32:06;;;;;;;0.40;0.40;;;;;;;3.48;100.00;96128.72;5003809;28;20104;-66
2024/01/04 07:34:38;;;;;;;0.50;0.50;;;;;;;4.63;99.79;96309.31;5003768;28;20053;-65
2024/01/04 07:37:06;;;;;;;0.40;0.40;;;;;;;3.53;100.00;96309.16;5002701;28;20061;-64
2024/01/04 07:39:33;;;;;;;0.40;0.40;;;;;;;3.76;100.00;96274.66;5003637;28;20073;-69
2024/01/04 07:42:00;;;;;;;0.50;0.50;;;;;;;4.21;100.00;96269.75;5003450;28;20054;-61
2024/01/04 07:44:27;;;;;;;0.50;0.50;;;;;;;3.05;100.00;96082.13;5007309;28;20133;-69
2024/01/04 07:46:53;;;;;;;0.50;0.50;;;;;;;4.50;100.00;96244.69;4983560;28;20055;-68
2024/01/04 07:49:20;;;;;;;0.40;0.40;;;;;;;4.73;100.00;96280.59;4983144;28;20128;-70
2024/01/04 07:51:47;;;;;;;0.50;0.50;;;;;;;3.41;100.00;96027.25;4982264;28;20931;-68
2024/01/04 07:54:14;;;;;;;0.50;0.50;;;;;;;5.08;100.00;96287.00;4983446;28;20058;-65
2024/01/04 07:56:41;;;;;;;0.50;0.50;;;;;;;5.08;100.00;96250.50;4983425;28;20050;-64
2024/01/04 07:59:09;;;;;;;0.50;0.50;;;;;;;4.94;100.00;96288.56;4998722;28;20053;-67
2024/01/04 08:01:35;;;;;;;0.60;0.60;;;;;;;5.57;100.00;96282.72;4982454;28;20432;-66
2024/01/04 08:04:03;;;;;;;0.50;0.50;;;;;;;5.60;100.00;96289.44;4983223;28;20707;-64
2024/01/04 08:06:31;;;;;;;0.60;0.60;;;;;;;5.47;100.00;96301.72;4984036;28;20104;-71
2024/01/04 08:08:58;;;;;;;0.60;0.60;;;;;;;6.09;100.00;96277.66;4998963;28;20054;-69
2024/01/04 08:11:25;;;;;;;0.50;0.50;;;;;;;5.94;100.00;96237.28;4998539;28;20058;-70
2024/01/04 08:13:51;;;;;;;0.60;0.60;;;;;;;6.18;100.00;96252.69;4984268;28;20457;-69
2024/01/04 08:16:22;;;;;;;0.60;0.60;;;;;;;5.83;100.00;96170.31;4987189;28;20148;-62
2024/01/04 08:18:51;;;;;;;0.60;0.60;;;;;;;4.61;100.00;95966.09;4987126;28;20050;-63
2024/01/04 08:21:18;;;;;;;0.60;0.60;;;;;;;6.21;100.00;96279.50;4987192;28;20062;-69
2024/01/04 08:23:50;;;;;;;0.60;0.60;;;;;;;6.06;100.00;96208.88;5001472;28;20054;-68
2024/01/04 08:26:17;;;;;;;0.55;0.55;;;;;;;6.62;100.00;96273.28;4986808;28;20057;-69
2024/01/04 08:28:44;;;;;;;0.60;0.60;;;;;;;6.65;100.00;96228.50;5001648;28;20056;-68
2024/01/04 08:31:11;;;;;;;0.70;0.70;;;;;;;6.74;100.00;96182.28;4985524;28;20050;-67
2024/01/04 08:33:38;;;;;;;0.60;0.60;;;;;;;7.25;100.00;96213.84;4987325;28;20145;-67
2024/01/04 08:36:05;;;;;;;0.60;0.60;;;;;;;7.19;100.00;96187.75;4986603;28;20073;-67
2024/01/04 08:38:33;;;;;;;0.60;0.60;;;;;;;7.54;98.58;96246.16;4986907;28;20050;-68
2024/01/04 08:41:00;;;;;;;0.60;0.60;;;;;;;7.66;98.27;96245.97;5001771;28;20142;-68
2024/01/04 08:43:27;;;;;;;0.70;0.70;;;;;;;7.87;97.12;96244.69;4986349;28;20077;-68
2024/01/04 08:45:54;;;;;;;0.60;0.60;;;;;;;8.01;97.11;96236.63;4986548;28;20061;-68
2024/01/04 08:48:21;;;;;;;0.70;0.70;;;;;;;6.80;96.46;96015.69;5001123;28;20046;-67
2024/01/04 08:50:48;;;;;;;0.70;0.70;;;;;;;7.00;95.54;96036.41;5001452;28;20057;-69
2024/01/04 08:53:20;;;;;;;0.70;0.70;;;;;;;8.30;94.16;96233.88;5017527;28;20127;-67
2024/01/04 08:55:48;;;;;;;0.70;0.70;;;;;;;6.34;94.50;95915.19;5005179;28;20179;-68
2024/01/04 08:58:15;;;;;;;0.70;0.70;;;;;;;8.34;94.76;96225.66;5004637;28;20500;-66
2024/01/04 09:00:42;;;;;;;0.70;0.70;;;;;;;7.62;94.19;96107.31;5005831;28;20499;-64
2024/01/04 09:03:09;;;;;;;0.68;0.68;;;;;;;7.02;93.51;96020.34;5006227;28;20531;-64
2024/01/04 09:05:36;;;;;;;0.70;0.70;;;;;;;7.86;94.36;96171.41;5005051;28;20054;-66
2024/01/04 09:08:04;;;;;;;0.70;0.70;;;;;;;7.16;95.19;96045.31;5005264;28;20050;-67
2024/01/04 09:10:31;;;;;;;0.70;0.70;;;;;;;6.99;96.15;96051.38;5004315;28;20060;-65
2024/01/04 09:12:58;;;;;;;0.70;0.70;;;;;;;7.10;100.00;96250.56;5003763;28;20073;-63
2024/01/04 09:15:25;;;;;;;0.60;0.60;;;;;;;6.20;100.00;96123.91;4990600;28;20051;-63
2024/01/04 09:17:54;;;;;;;0.70;0.70;;;;;;;7.27;100.00;96210.72;4965791;28;20514;-67
2024/01/04 09:20:21;;;;;;;0.70;0.70;;;;;;;7.54;100.00;96215.06;4967476;28;20046;-67
2024/01/04 09:22:48;;;;;;;0.68;0.68;;;;;;;7.19;100.00;96164.94;4977015;28;20460;-68
2024/01/04 09:25:15;;;;;;;0.60;0.60;;;;;;;7.33;100.00;96174.19;5002855;28;20108;-67
2024/01/04 09:27:42;;;;;;;0.65;0.65;;;;;;;7.31;100.00;96203.28;5018598;28;20520;-63
2024/01/04 09:30:09;;;;;;;0.63;0.63;;;;;;;7.58;100.00;96193.88;5004988;28;20285;-70
2024/01/04 09:32:37;;;;;;;0.60;0.60;;;;;;;7.63;100.00;96191.56;5005207;28;20483;-65
2024/01/04 09:35:05;;;;;;;0.70;0.70;;;;;;;7.68;100.00;96191.25;5020026;28;20140;-70
2024/01/04 09:37:32;;;;;;;0.70;0.70;;;;;;;7.86;100.00;96143.84;5036534;28;20540;-67
2024/01/04 09:39:59;;;;;;;0.80;0.80;;;;;;;8.28;100.00;96167.28;5004667;28;20528;-70
2024/01/04 09:42:26;;;;;;;0.70;0.70;;;;;;;8.46;98.41;96161.91;5020078;28;20064;-72
2024/01/04 09:44:54;;;;;;;0.63;0.63;;;;;;;7.59;98.71;96064.00;5006291;28;20107;-66
2024/01/04 09:47:23;;;;;;;0.70;0.70;;;;;;;8.28;98.74;96108.53;4998002;28;20498;-69
2024/01/04 09:49:51;;;;;;;0.70;0.70;;;;;;;8.30;96.71;96053.78;4992366;28;20532;-66
2024/01/04 09:52:24;;;;;;;0.70;0.70;;;;;;;9.28;95.51;96148.47;5010664;28;20050;-66
2024/01/04 09:54:55;;;;;;;0.70;0.70;;;;;;;9.67;93.76;96132.97;4999374;28;20051;-69
2024/01/04 09:57:22;;;;;;;0.80;0.80;;;;;;;9.74;91.77;96077.69;4985696;28;20139;-67
2024/01/04 09:59:49;;;;;;;0.80;0.80;;;;;;;10.53;88.51;96142.03;5003168;28;20060;-68
2024/01/04 10:02:20;;;;;;;0.80;0.80;;;;;;;10.72;88.23;96104.09;5003070;28;20053;-69
2024/01/04 10:04:50;;;;;;;0.90;0.90;;;;;;;10.50;86.77;95998.84;5016753;28;20062;-69
2024/01/04 10:07:24;;;;;;;0.80;0.80;;;;;;;11.61;84.23;96111.97;5003295;28;20058;-68
2024/01/04 10:10:16;;;;;;;0.90;0.90;;;;;;;11.96;82.69;96101.59;4990405;28;20045;-68
2024/01/04 10:12:42;;;;;;;0.98;0.98;;;;;;;12.21;80.57;96090.38;5009789;28;20045;-68
2024/01/04 10:15:11;;;;;;;1.13;1.13;;;;;;;12.26;79.03;96070.53;5004443;28;20046;-68
2024/01/04 10:17:39;;;;;;;1.10;1.10;;;;;;;12.54;77.06;96066.78;5004468;28;20050;-68
2024/01/04 10:20:08;;;;;;;1.00;1.00;;;;;;;11.43;75.74;95861.69;5003219;28;20447;-68
2024/01/04 10:22:35;;;;;;;1.20;1.20;;;;;;;13.30;74.54;96087.69;5004523;28;20062;-69
2024/01/04 10:25:09;;;;;;;1.10;1.10;;;;;;;13.65;75.09;96080.97;4995652;28;20105;-65
2024/01/04 10:27:38;;;;;;;1.20;1.20;;;;;;;13.87;73.29;96064.81;4988983;28;20061;-67
2024/01/04 10:30:06;;;;;;;1.27;1.27;;;;;;;13.94;74.78;96067.53;5001208;28;20179;-68
2024/01/04 10:32:34;;;;;;;1.30;1.30;;;;;;;14.29;74.54;96056.00;5002203;28;20153;-65
2024/01/04 10:35:08;;;;;;;1.10;1.10;;;;;;;13.72;74.08;95904.78;5003346;28;20041;-73
2024/01/04 10:37:36;;;;;;;1.15;1.15;;;;;;;14.74;68.35;96046.16;5006410;28;20057;-72
2024/01/04 10:40:05;;;;;;;1.35;1.35;;;;;;;14.88;69.42;96048.72;5003560;28;20056;-63
2024/01/04 10:42:32;;;;;;;1.23;1.23;;;;;;;14.95;66.02;96026.31;5004223;28;20089;-63
2024/01/04 10:44:59;;;;;;;1.40;1.40;;;;;;;14.98;67.64;96008.75;4988612;28;20057;-68
2024/01/04 10:47:27;;;;;;;1.20;1.20;;;;;;;13.76;67.04;95844.28;4984955;28;20050;-74
2024/01/04 10:49:58;;;;;;;1.20;1.20;;;;;;;13.89;67.94;95909.31;5017210;28;20425;-72
2024/01/04 10:52:30;;;;;;;1.60;1.60;;;;;;;14.72;66.19;96006.75;5004069;28;20094;-68
2024/01/04 10:55:00;;;;;;;1.40;1.40;;;;;;;13.46;67.21;95820.88;5018969;28;20054;-68
2024/01/04 10:57:31;;;;;;;1.20;1.20;;;;;;;14.73;67.19;95953.38;5004559;28;20203;-70
2024/01/04 11:00:00;;;;;;;1.30;1.30;;;;;;;14.78;63.26;95952.09;5003395;28;20085;-70
2024/01/04 11:02:29;;;;;;;1.30;1.30;;;;;;;14.70;64.25;95967.41;5004370;28;20100;-68
2024/01/04 11:04:56;;;;;;;1.20;1.20;;;;;;;14.40;65.65;95897.81;5003578;28;20076;-70
2024/01/04 11:07:26;;;;;;;1.40;1.40;;;;;;;15.09;66.62;95996.19;5004195;28;20077;-69
2024/01/04 11:09:54;;;;;;;1.40;1.40;;;;;;;15.00;68.47;95956.91;4989882;28;20097;-69
2024/01/04 11:12:23;;;;;;;1.30;1.30;;;;;;;14.59;69.10;95866.44;4984391;28;20056;-67
2024/01/04 11:14:50;;;;;;;1.40;1.40;;;;;;;14.48;68.18;95838.00;5001622;28;20058;-68
2024/01/04 11:17:26;;;;;;;1.63;1.63;;;;;;;15.61;67.79;95984.50;5004140;28;20500;-68
2024/01/04 11:20:08;;;;;;;1.20;1.20;;;;;;;15.60;66.73;95982.94;5003600;28;20056;-64
2024/01/04 11:22:59;;;;;;;1.48;1.48;;;;;;;15.77;66.09;95971.41;5003462;28;20053;-64
2024/01/04 11:26:00;;;;;;;1.20;1.20;;;;;;;15.88;65.17;95960.81;5003920;28;20058;-72
2024/01/04 11:28:28;;;;;;;1.50;1.50;;;;;;;15.69;64.50;95935.69;5016903;28;20053;-72
2024/01/04 11:31:06;;;;;;;1.40;1.40;;;;;;;14.71;63.40;95787.78;5002691;28;20541;-70
2024/01/04 11:33:43;;;;;;;1.40;1.40;;;;;;;15.79;63.47;95941.03;5002497;28;20406;-64
2024/01/04 11:36:16;;;;;;;1.50;1.50;;;;;;;15.64;61.76;95911.84;5003074;28;20135;-67